createdAt,value
2018-12-21T00:01:03.463Z,8.50
2018-12-21T00:03:31.804Z,8.50
2018-12-21T00:06:00.072Z,8.50
2018-12-21T00:08:28.268Z,8.50
2018-12-21T00:10:56.901Z,8.60
2018-12-21T00:13:25.030Z,8.60
2018-12-21T00:15:53.233Z,8.60
2018-12-21T00:18:21.738Z,8.50
2018-12-21T00:20:49.832Z,8.60
2018-12-21T00:23:18.102Z,8.60
2018-12-21T00:25:46.360Z,8.60
2018-12-21T00:28:14.592Z,8.70
2018-12-21T00:30:42.035Z,8.60
2018-12-21T00:33:15.835Z,8.60
2018-12-21T00:35:49.330Z,8.60
2018-12-21T00:38:23.191Z,8.60
2018-12-21T00:40:56.895Z,8.50
2018-12-21T00:43:45.767Z,8.50
2018-12-21T00:47:18.486Z,8.50
2018-12-21T00:49:47.039Z,8.60
2018-12-21T00:52:15.170Z,8.60
2018-12-21T00:54:43.375Z,8.50
2018-12-21T00:57:11.661Z,8.60
2018-12-21T00:59:39.946Z,8.60
2018-12-21T01:02:08.164Z,8.50
2018-12-21T01:04:36.342Z,8.50
2018-12-21T01:07:04.630Z,8.50
2018-12-21T01:09:32.859Z,8.50
2018-12-21T01:12:01.571Z,8.50
2018-12-21T01:14:29.934Z,8.40
2018-12-21T01:16:58.128Z,8.40
2018-12-21T01:19:26.849Z,8.40
2018-12-21T01:21:55.017Z,8.40
2018-12-21T01:24:23.252Z,8.40
2018-12-21T01:26:51.799Z,8.40
2018-12-21T01:29:19.925Z,8.40
2018-12-21T01:31:48.048Z,8.40
2018-12-21T01:34:16.315Z,8.40
2018-12-21T01:36:44.458Z,8.40
2018-12-21T01:39:12.577Z,8.40
2018-12-21T01:41:40.903Z,8.30
2018-12-21T01:44:09.312Z,8.30
2018-12-21T01:46:37.466Z,8.30
2018-12-21T01:49:05.985Z,8.30
2018-12-21T01:51:34.230Z,8.40
2018-12-21T01:54:02.345Z,8.30
2018-12-21T01:56:30.700Z,8.40
2018-12-21T01:58:58.871Z,8.40
2018-12-21T02:01:27.449Z,8.40
2018-12-21T02:03:56.028Z,8.30
2018-12-21T02:06:24.227Z,8.30
2018-12-21T02:08:52.370Z,8.30
2018-12-21T02:11:20.636Z,8.40
2018-12-21T02:13:48.847Z,8.40
2018-12-21T02:16:17.009Z,8.40
2018-12-21T02:18:45.608Z,8.40
2018-12-21T02:21:13.809Z,8.40
2018-12-21T02:23:42.009Z,8.40
2018-12-21T02:26:10.260Z,8.50
2018-12-21T02:28:38.462Z,8.40
2018-12-21T02:31:06.676Z,8.40
2018-12-21T02:33:35.272Z,8.40
2018-12-21T02:36:03.756Z,8.40
2018-12-21T02:38:31.869Z,8.40
2018-12-21T02:41:00.169Z,8.40
2018-12-21T02:43:28.343Z,8.50
2018-12-21T02:45:56.583Z,8.50
2018-12-21T02:48:24.928Z,8.50
2018-12-21T02:50:53.063Z,8.50
2018-12-21T02:53:21.586Z,8.50
2018-12-21T02:55:50.268Z,8.50
2018-12-21T02:58:18.380Z,8.50
2018-12-21T03:00:46.654Z,8.50
2018-12-21T03:03:14.958Z,8.50
2018-12-21T03:05:43.193Z,8.50
2018-12-21T03:08:11.402Z,8.50
2018-12-21T03:10:39.797Z,8.50
2018-12-21T03:13:07.941Z,8.50
2018-12-21T03:15:36.146Z,8.60
2018-12-21T03:18:04.473Z,8.60
2018-12-21T03:20:32.767Z,8.60
2018-12-21T03:23:00.924Z,8.50
2018-12-21T03:25:29.225Z,8.50
2018-12-21T03:27:57.569Z,8.50
2018-12-21T03:30:25.791Z,8.60
2018-12-21T03:32:54.042Z,8.60
2018-12-21T03:35:22.272Z,8.50
2018-12-21T03:37:50.423Z,8.50
2018-12-21T03:40:18.942Z,8.50
2018-12-21T03:42:47.120Z,8.50
2018-12-21T03:45:15.388Z,8.50
2018-12-21T03:47:43.886Z,8.50
2018-12-21T03:50:12.103Z,8.60
2018-12-21T03:52:40.303Z,8.50
2018-12-21T03:55:08.549Z,8.60
2018-12-21T03:57:36.847Z,8.50
2018-12-21T04:00:06.136Z,8.50
2018-12-21T04:02:35.099Z,8.50
2018-12-21T04:05:03.415Z,8.50
2018-12-21T04:07:31.532Z,8.50
2018-12-21T04:10:00.108Z,8.50
2018-12-21T04:12:28.234Z,8.50
2018-12-21T04:14:56.341Z,8.50
2018-12-21T04:17:24.788Z,8.50
2018-12-21T04:19:53.334Z,8.50
2018-12-21T04:22:21.555Z,8.50
2018-12-21T04:24:50.196Z,8.60
2018-12-21T04:27:18.334Z,8.50
2018-12-21T04:29:46.452Z,8.50
2018-12-21T04:32:14.778Z,8.60
2018-12-21T04:34:42.900Z,8.60
2018-12-21T04:37:11.143Z,8.60
2018-12-21T04:39:39.484Z,8.60
2018-12-21T04:42:07.699Z,8.60
2018-12-21T04:44:35.887Z,8.60
2018-12-21T04:47:04.138Z,8.60
2018-12-21T04:49:32.445Z,8.60
2018-12-21T04:52:00.720Z,8.70
2018-12-21T04:54:29.524Z,8.70
2018-12-21T04:56:57.658Z,8.70
2018-12-21T04:59:25.857Z,8.60
2018-12-21T05:01:54.118Z,8.70
2018-12-21T05:04:22.305Z,8.70
2018-12-21T05:06:50.437Z,8.70
2018-12-21T05:09:18.867Z,8.70
2018-12-21T05:11:47.199Z,8.70
2018-12-21T05:14:15.343Z,8.70
2018-12-21T05:16:43.689Z,8.80
2018-12-21T05:19:11.816Z,8.80
2018-12-21T05:21:39.925Z,8.80
2018-12-21T05:24:08.725Z,8.80
2018-12-21T05:26:36.846Z,8.90
2018-12-21T05:29:05.412Z,8.90
2018-12-21T05:31:33.619Z,8.90
2018-12-21T05:34:01.996Z,8.90
2018-12-21T05:36:30.140Z,8.90
2018-12-21T05:38:58.521Z,8.90
2018-12-21T05:41:26.635Z,8.90
2018-12-21T05:43:54.759Z,8.90
2018-12-21T05:46:23.346Z,8.90
2018-12-21T05:48:51.549Z,8.90
2018-12-21T05:51:19.676Z,8.90
2018-12-21T05:53:48.175Z,8.90
2018-12-21T05:56:16.276Z,8.90
2018-12-21T05:58:44.409Z,8.90
2018-12-21T06:01:12.652Z,8.90
2018-12-21T06:03:40.959Z,8.90
2018-12-21T06:06:09.131Z,8.90
2018-12-21T06:08:37.372Z,8.90
2018-12-21T06:11:05.750Z,8.90
2018-12-21T06:13:33.942Z,9.00
2018-12-21T06:16:02.249Z,9.00
2018-12-21T06:18:30.968Z,9.00
2018-12-21T06:20:59.076Z,9.00
2018-12-21T06:23:27.485Z,9.00
2018-12-21T06:25:55.720Z,9.00
2018-12-21T06:28:23.855Z,9.00
2018-12-21T06:30:52.179Z,9.00
2018-12-21T06:33:20.396Z,9.00
2018-12-21T06:35:48.603Z,9.10
2018-12-21T06:38:16.875Z,9.10
2018-12-21T06:40:45.003Z,9.10
2018-12-21T06:43:13.239Z,9.20
2018-12-21T06:45:41.504Z,9.20
2018-12-21T06:48:09.683Z,9.20
2018-12-21T06:50:37.892Z,9.20
2018-12-21T06:53:06.444Z,9.30
2018-12-21T06:55:34.627Z,9.30
2018-12-21T06:58:02.820Z,9.30
2018-12-21T07:00:31.090Z,9.20
2018-12-21T07:02:59.305Z,9.20
2018-12-21T07:05:27.512Z,9.30
2018-12-21T07:07:55.711Z,9.30
2018-12-21T07:10:24.030Z,9.30
2018-12-21T07:12:52.163Z,9.30
2018-12-21T07:15:20.519Z,9.30
2018-12-21T07:17:48.678Z,9.40
2018-12-21T07:20:16.796Z,9.40
2018-12-21T07:22:45.315Z,9.40
2018-12-21T07:25:13.532Z,9.40
2018-12-21T07:27:41.682Z,9.40
2018-12-21T07:30:11.624Z,9.40
2018-12-21T07:32:39.844Z,9.40
2018-12-21T07:35:10.903Z,9.50
2018-12-21T07:37:39.671Z,9.50
2018-12-21T07:40:09.195Z,9.50
2018-12-21T07:42:37.395Z,9.50
2018-12-21T07:45:07.141Z,9.60
2018-12-21T07:47:35.366Z,9.60
2018-12-21T07:50:03.839Z,9.60
2018-12-21T07:52:32.272Z,9.60
2018-12-21T07:55:00.394Z,9.70
2018-12-21T07:57:28.538Z,9.70
2018-12-21T07:59:56.872Z,9.70
2018-12-21T08:02:25.056Z,9.70
2018-12-21T08:04:53.173Z,9.70
2018-12-21T08:07:21.449Z,9.80
2018-12-21T08:09:49.939Z,9.80
2018-12-21T08:12:18.147Z,9.80
2018-12-21T08:14:46.359Z,9.80
2018-12-21T08:17:14.764Z,9.80
2018-12-21T08:19:42.906Z,9.90
2018-12-21T08:22:11.783Z,9.90
2018-12-21T08:24:40.068Z,9.90
2018-12-21T08:27:08.214Z,9.90
2018-12-21T08:29:36.559Z,10.00
2018-12-21T08:32:04.761Z,10.00
2018-12-21T08:34:33.025Z,10.00
2018-12-21T08:37:01.339Z,10.10
2018-12-21T08:39:29.708Z,10.10
2018-12-21T08:41:57.899Z,10.10
2018-12-21T08:44:26.531Z,10.10
2018-12-21T08:46:54.662Z,10.10
2018-12-21T08:49:22.902Z,10.10
2018-12-21T08:51:51.119Z,10.10
2018-12-21T08:54:19.248Z,10.10
2018-12-21T08:56:47.583Z,10.20
2018-12-21T08:59:16.192Z,10.20
2018-12-21T09:01:44.393Z,10.30
2018-12-21T09:04:12.622Z,10.30
2018-12-21T09:06:40.960Z,10.20
2018-12-21T09:09:09.720Z,10.30
2018-12-21T09:11:37.854Z,10.30
2018-12-21T09:14:07.243Z,10.30
2018-12-21T09:16:35.620Z,10.40
2018-12-21T09:19:03.862Z,10.40
2018-12-21T09:21:32.416Z,10.50
2018-12-21T09:24:01.504Z,10.50
2018-12-21T09:26:30.054Z,10.50
2018-12-21T09:28:58.351Z,10.50
2018-12-21T09:31:26.576Z,10.60
2018-12-21T09:33:54.783Z,10.50
2018-12-21T09:36:23.152Z,10.60
2018-12-21T09:38:51.405Z,10.70
2018-12-21T09:41:19.608Z,10.80
2018-12-21T09:43:48.067Z,10.80
2018-12-21T09:46:16.200Z,10.80
2018-12-21T09:48:44.396Z,10.90
2018-12-21T09:51:13.316Z,11.00
2018-12-21T09:53:41.448Z,11.10
2018-12-21T09:56:09.595Z,11.20
2018-12-21T09:58:38.212Z,11.30
2018-12-21T10:01:06.328Z,11.30
2018-12-21T10:03:34.478Z,11.50
2018-12-21T10:06:02.862Z,11.50
2018-12-21T10:08:31.006Z,11.60
2018-12-21T10:10:59.176Z,11.70
2018-12-21T10:13:27.320Z,11.70
2018-12-21T10:15:55.452Z,11.80
2018-12-21T10:18:23.652Z,11.80
2018-12-21T10:20:51.971Z,11.90
2018-12-21T10:23:20.156Z,11.90
2018-12-21T10:25:48.444Z,12.00
2018-12-21T10:28:16.860Z,12.20
2018-12-21T10:30:45.020Z,12.10
2018-12-21T10:33:13.180Z,12.20
2018-12-21T10:35:41.507Z,12.20
2018-12-21T10:38:09.654Z,12.30
2018-12-21T10:40:37.768Z,12.30
2018-12-21T10:43:06.409Z,12.30
2018-12-21T10:45:41.535Z,12.40
2018-12-21T10:48:04.816Z,12.40
2018-12-21T10:50:33.244Z,12.40
2018-12-21T10:53:02.302Z,12.50
2018-12-21T10:55:30.432Z,12.50
2018-12-21T10:57:58.715Z,12.50
2018-12-21T11:00:27.112Z,12.50
2018-12-21T11:02:55.311Z,12.60
2018-12-21T11:05:23.648Z,12.60
2018-12-21T11:07:51.782Z,12.50
2018-12-21T11:10:19.948Z,12.60
2018-12-21T11:12:48.476Z,12.60
2018-12-21T11:15:16.788Z,12.50
2018-12-21T11:17:44.939Z,12.50
2018-12-21T11:20:13.280Z,12.50
2018-12-21T11:22:41.418Z,12.50
2018-12-21T11:25:11.966Z,12.50
2018-12-21T11:27:40.481Z,12.50
2018-12-21T11:30:09.151Z,12.50
2018-12-21T11:32:37.448Z,12.50
2018-12-21T11:35:05.748Z,12.50
2018-12-21T11:37:33.882Z,12.50
2018-12-21T11:40:02.824Z,12.60
2018-12-21T11:42:31.079Z,12.60
2018-12-21T11:44:59.222Z,12.60
2018-12-21T11:47:27.554Z,12.60
2018-12-21T11:49:56.014Z,12.60
2018-12-21T11:52:24.201Z,12.60
2018-12-21T11:54:52.416Z,12.60
2018-12-21T11:57:20.600Z,12.60
2018-12-21T11:59:48.772Z,12.60
2018-12-21T12:02:19.745Z,12.60
2018-12-21T12:04:47.266Z,12.70
2018-12-21T12:07:15.564Z,12.60
2018-12-21T12:09:43.706Z,12.60
2018-12-21T12:12:11.976Z,12.60
2018-12-21T12:14:40.098Z,12.70
2018-12-21T12:17:08.246Z,12.70
2018-12-21T12:19:36.960Z,12.70
2018-12-21T12:22:05.177Z,12.70
2018-12-21T12:24:33.451Z,12.70
2018-12-21T12:27:02.008Z,12.80
2018-12-21T12:29:30.287Z,12.70
2018-12-21T12:31:58.471Z,12.80
2018-12-21T12:34:26.832Z,12.80
2018-12-21T12:36:55.342Z,12.70
2018-12-21T12:39:23.595Z,12.70
2018-12-21T12:41:51.987Z,12.70
2018-12-21T12:44:20.116Z,12.70
2018-12-21T12:46:48.308Z,12.70
2018-12-21T12:49:16.829Z,12.70
2018-12-21T12:51:45.003Z,12.60
2018-12-21T12:54:13.178Z,12.60
2018-12-21T12:56:41.393Z,12.70
2018-12-21T12:59:09.538Z,12.70
2018-12-21T13:01:38.002Z,12.70
2018-12-21T13:04:06.779Z,12.70
2018-12-21T13:06:34.904Z,12.60
2018-12-21T13:09:05.101Z,12.70
2018-12-21T13:11:33.460Z,12.70
2018-12-21T13:14:01.600Z,12.70
2018-12-21T13:16:29.746Z,12.70
2018-12-21T13:18:58.023Z,12.60
2018-12-21T13:21:26.240Z,12.60
2018-12-21T13:23:54.377Z,12.60
2018-12-21T13:26:22.993Z,12.60
2018-12-21T13:28:51.203Z,12.60
2018-12-21T13:31:19.454Z,12.60
2018-12-21T13:33:47.898Z,12.50
2018-12-21T13:36:16.243Z,12.60
2018-12-21T13:38:44.823Z,12.60
2018-12-21T13:41:13.069Z,12.50
2018-12-21T13:43:41.280Z,12.50
2018-12-21T13:46:09.531Z,12.40
2018-12-21T13:48:38.062Z,12.40
2018-12-21T13:51:06.175Z,12.40
2018-12-21T13:53:34.307Z,12.50
2018-12-21T13:56:02.744Z,12.50
2018-12-21T13:58:30.877Z,12.40
2018-12-21T14:00:59.230Z,12.40
2018-12-21T14:03:27.895Z,12.30
2018-12-21T14:05:56.020Z,12.30
2018-12-21T14:08:24.167Z,12.30
2018-12-21T14:10:52.624Z,12.30
2018-12-21T14:13:20.760Z,12.30
2018-12-21T14:15:48.892Z,12.20
2018-12-21T14:18:17.243Z,12.10
2018-12-21T14:20:45.378Z,12.00
2018-12-21T14:23:13.530Z,12.00
2018-12-21T14:25:42.066Z,12.10
2018-12-21T14:28:10.203Z,12.10
2018-12-21T14:30:38.353Z,12.00
2018-12-21T14:33:06.908Z,12.00
2018-12-21T14:35:35.057Z,12.10
2018-12-21T14:38:03.198Z,12.00
2018-12-21T14:40:31.992Z,12.00
2018-12-21T14:43:00.184Z,11.90
2018-12-21T14:45:28.484Z,11.90
2018-12-21T14:47:56.866Z,11.90
2018-12-21T14:50:24.997Z,11.80
2018-12-21T14:52:53.132Z,11.80
2018-12-21T14:55:21.714Z,11.80
2018-12-21T14:57:49.841Z,11.80
2018-12-21T15:00:18.148Z,11.80
2018-12-21T15:02:46.855Z,11.70
2018-12-21T15:05:15.006Z,11.70
2018-12-21T15:07:43.140Z,11.70
2018-12-21T15:10:11.494Z,11.70
2018-12-21T15:12:39.646Z,11.70
2018-12-21T15:15:08.743Z,11.70
2018-12-21T15:17:37.578Z,11.60
2018-12-21T15:20:08.870Z,11.60
2018-12-21T15:22:37.094Z,11.60
2018-12-21T15:25:05.963Z,11.50
2018-12-21T15:27:34.833Z,11.40
2018-12-21T15:30:03.310Z,11.50
2018-12-21T15:32:31.707Z,11.40
2018-12-21T15:34:59.910Z,11.30
2018-12-21T15:37:28.146Z,11.10
2018-12-21T15:39:56.535Z,11.00
2018-12-21T15:42:24.765Z,10.80
2018-12-21T15:44:53.060Z,10.80
2018-12-21T15:47:21.471Z,10.70
2018-12-21T15:49:49.710Z,10.70
2018-12-21T15:52:18.126Z,10.70
2018-12-21T15:54:46.380Z,10.60
2018-12-21T15:57:15.877Z,10.60
2018-12-21T15:59:44.098Z,10.70
2018-12-21T16:02:12.856Z,10.70
2018-12-21T16:04:41.002Z,10.60
2018-12-21T16:07:09.155Z,10.70
2018-12-21T16:09:37.694Z,10.70
2018-12-21T16:12:06.001Z,10.80
2018-12-21T16:14:36.497Z,10.80
2018-12-21T16:17:04.675Z,10.90
2018-12-21T16:19:32.868Z,10.80
2018-12-21T16:22:01.226Z,10.80
2018-12-21T16:24:29.822Z,10.80
2018-12-21T16:26:57.996Z,10.70
2018-12-21T16:29:27.241Z,10.60
2018-12-21T16:31:55.875Z,10.60
2018-12-21T16:34:24.016Z,10.60
2018-12-21T16:36:54.194Z,10.60
2018-12-21T16:39:22.602Z,10.60
2018-12-21T16:41:51.985Z,10.60
2018-12-21T16:44:20.116Z,10.50
2018-12-21T16:46:48.439Z,10.60
2018-12-21T16:49:16.654Z,10.70
2018-12-21T16:51:44.808Z,10.70
2018-12-21T16:54:13.259Z,10.70
2018-12-21T16:56:41.468Z,10.80
2018-12-21T16:59:09.668Z,10.90
2018-12-21T17:01:38.052Z,10.80
2018-12-21T17:04:06.184Z,10.90
2018-12-21T17:06:34.344Z,10.90
2018-12-21T17:09:02.899Z,10.90
2018-12-21T17:11:31.439Z,10.90
2018-12-21T17:13:59.735Z,11.00
2018-12-21T17:16:28.193Z,11.00
2018-12-21T17:18:57.112Z,11.00
2018-12-21T17:21:25.251Z,11.00
2018-12-21T17:23:53.559Z,11.00
2018-12-21T17:26:21.776Z,11.00
2018-12-21T17:28:49.916Z,11.00
2018-12-21T17:31:18.514Z,10.90
2018-12-21T17:33:46.650Z,10.90
2018-12-21T17:36:14.778Z,10.90
2018-12-21T17:38:43.387Z,11.00
2018-12-21T17:41:11.552Z,11.00
2018-12-21T17:43:39.680Z,10.90
2018-12-21T17:46:08.226Z,11.00
2018-12-21T17:48:36.410Z,11.00
2018-12-21T17:51:04.653Z,11.10
2018-12-21T17:53:32.904Z,11.10
2018-12-21T17:56:01.084Z,11.10
2018-12-21T17:58:29.315Z,11.10
2018-12-21T18:00:57.836Z,11.10
2018-12-21T18:04:07.428Z,11.20
2018-12-21T18:06:36.070Z,11.10
2018-12-21T18:09:06.424Z,11.20
2018-12-21T18:11:34.556Z,11.20
2018-12-21T18:14:03.242Z,11.20
2018-12-21T18:16:31.443Z,11.20
2018-12-21T18:18:59.607Z,11.20
2018-12-21T18:21:29.381Z,11.20
2018-12-21T18:23:57.687Z,11.20
2018-12-21T18:26:25.914Z,11.10
2018-12-21T18:28:54.363Z,11.20
2018-12-21T18:31:29.778Z,11.10
2018-12-21T18:33:58.667Z,11.10
2018-12-21T18:36:26.911Z,11.20
2018-12-21T18:38:55.269Z,11.10
2018-12-21T18:41:23.784Z,10.90
2018-12-21T18:43:51.948Z,10.70
2018-12-21T18:46:20.186Z,10.60
2018-12-21T18:48:48.841Z,10.40
2018-12-21T18:51:17.202Z,10.30
2018-12-21T18:53:45.356Z,10.20
2018-12-21T18:59:01.301Z,10.10
2018-12-21T19:01:29.485Z,10.10
2018-12-21T19:03:57.964Z,10.00
2018-12-21T19:06:26.109Z,10.00
2018-12-21T19:08:54.250Z,9.90
2018-12-21T19:11:22.812Z,9.90
2018-12-21T19:13:50.922Z,9.90
2018-12-21T19:16:19.107Z,9.80
2018-12-21T19:18:47.407Z,9.80
2018-12-21T19:21:16.418Z,9.80
2018-12-21T19:23:45.226Z,9.80
2018-12-21T19:26:13.535Z,9.80
2018-12-21T19:28:41.651Z,9.80
2018-12-21T19:31:09.802Z,9.80
2018-12-21T19:33:38.453Z,9.80
2018-12-21T19:36:06.708Z,9.80
2018-12-21T19:38:34.862Z,9.80
2018-12-21T19:41:03.374Z,9.80
2018-12-21T19:43:31.551Z,9.80
2018-12-21T19:46:01.129Z,9.80
2018-12-21T19:48:29.774Z,9.80
2018-12-21T19:50:57.924Z,9.80
2018-12-21T19:53:26.054Z,9.70
2018-12-21T19:56:06.660Z,9.80
2018-12-21T19:58:34.892Z,9.80
2018-12-21T20:01:03.095Z,9.80
2018-12-21T20:03:31.987Z,9.80
2018-12-21T20:06:00.140Z,9.80
2018-12-21T20:08:28.883Z,9.80
2018-12-21T20:10:57.988Z,9.80
2018-12-21T20:13:26.133Z,9.70
2018-12-21T20:15:54.327Z,9.80
2018-12-21T20:18:23.402Z,9.80
2018-12-21T20:20:51.720Z,9.70
2018-12-21T20:23:20.126Z,9.80
2018-12-21T20:25:48.630Z,9.80
2018-12-21T20:28:16.812Z,9.80
2018-12-21T20:30:45.028Z,9.80
2018-12-21T20:33:13.254Z,9.80
2018-12-21T20:35:41.526Z,9.80
2018-12-21T20:38:09.673Z,9.80
2018-12-21T20:40:38.014Z,9.80
2018-12-21T20:43:06.863Z,9.80
2018-12-21T20:45:35.012Z,9.80
2018-12-21T20:48:03.303Z,9.80
2018-12-21T20:50:31.421Z,9.80
2018-12-21T20:52:59.662Z,9.80
2018-12-21T20:55:28.120Z,9.80
2018-12-21T20:58:00.890Z,9.80
2018-12-21T21:00:29.224Z,9.80
2018-12-21T21:02:57.531Z,9.80
2018-12-21T21:05:26.315Z,9.80
2018-12-21T21:07:55.461Z,9.80
2018-12-21T21:10:23.663Z,9.80
2018-12-21T21:12:51.834Z,9.80
2018-12-21T21:15:20.613Z,9.80
2018-12-21T21:17:48.807Z,9.80
2018-12-21T21:20:17.044Z,9.80
2018-12-21T21:22:46.871Z,9.80
2018-12-21T21:25:15.039Z,9.80
2018-12-21T21:27:43.185Z,9.80
2018-12-21T21:30:15.099Z,9.80
2018-12-21T21:32:43.246Z,9.80
2018-12-21T21:35:11.446Z,9.90
2018-12-21T21:37:40.105Z,9.80
2018-12-21T21:40:12.178Z,9.90
2018-12-21T21:42:40.323Z,9.90
2018-12-21T21:45:08.865Z,9.90
2018-12-21T21:47:37.007Z,9.80
2018-12-21T21:50:06.143Z,9.80
2018-12-21T21:52:34.802Z,9.80
2018-12-21T21:55:03.092Z,9.80
2018-12-21T21:57:39.001Z,9.80
2018-12-21T22:00:01.772Z,9.90
2018-12-21T22:02:29.907Z,9.90
2018-12-21T22:04:58.032Z,9.90
2018-12-21T22:07:26.619Z,9.90
2018-12-21T22:09:54.908Z,9.90
2018-12-21T22:12:23.199Z,9.90
2018-12-21T22:14:51.753Z,9.90
2018-12-21T22:17:19.915Z,9.90
2018-12-21T22:19:48.056Z,9.90
2018-12-21T22:22:16.424Z,9.90
2018-12-21T22:24:44.638Z,10.00
2018-12-21T22:27:12.780Z,9.90
2018-12-21T22:29:41.122Z,9.90
2018-12-21T22:32:09.248Z,9.90
2018-12-21T22:34:37.391Z,9.90
2018-12-21T22:37:06.060Z,9.80
2018-12-21T22:39:34.201Z,9.80
2018-12-21T22:42:02.433Z,9.80
2018-12-21T22:44:30.746Z,9.80
2018-12-21T22:46:58.937Z,9.80
2018-12-21T22:49:27.076Z,9.80
2018-12-21T22:51:55.592Z,9.80
2018-12-21T22:54:23.716Z,9.80
2018-12-21T22:56:52.082Z,9.90
2018-12-21T22:59:20.726Z,9.90
2018-12-21T23:01:48.935Z,9.90
2018-12-21T23:04:17.117Z,9.90
2018-12-21T23:06:45.507Z,9.90
2018-12-21T23:09:13.648Z,9.90
2018-12-21T23:11:41.794Z,9.90
2018-12-21T23:14:10.719Z,10.00
2018-12-21T23:16:38.963Z,10.00
2018-12-21T23:19:07.163Z,10.00
2018-12-21T23:21:36.027Z,10.00
2018-12-21T23:24:04.232Z,10.00
2018-12-21T23:26:32.466Z,10.00
2018-12-21T23:29:00.980Z,10.00
2018-12-21T23:31:29.129Z,10.00
2018-12-21T23:33:57.343Z,10.00
2018-12-21T23:36:25.670Z,10.10
2018-12-21T23:38:53.834Z,10.10
2018-12-21T23:41:21.957Z,10.10
2018-12-21T23:43:50.650Z,10.10
2018-12-21T23:46:19.031Z,10.10
2018-12-21T23:48:47.255Z,10.10
2018-12-21T23:51:15.647Z,10.10
2018-12-21T23:53:43.771Z,10.00
2018-12-21T23:56:12.362Z,10.10
2018-12-21T23:58:40.776Z,10.00
